sensor_id;sensor_type;location;lat;lon;timestamp;temperature;humidity
674;DHT22;319;48.764;9.174;2023-09-18T00:00:51;21.90;99.90
674;DHT22;319;48.764;9.174;2023-09-18T00:03:19;21.90;99.90
674;DHT22;319;48.764;9.174;2023-09-18T00:05:46;21.90;99.90
674;DHT22;319;48.764;9.174;2023-09-18T00:08:13;21.90;99.90
674;DHT22;319;48.764;9.174;2023-09-18T00:10:42;21.90;99.90
674;DHT22;319;48.764;9.174;2023-09-18T00:13:09;22.00;99.90
674;DHT22;319;48.764;9.174;2023-09-18T00:15:36;22.00;99.90
674;DHT22;319;48.764;9.174;2023-09-18T00:18:04;22.00;99.90
674;DHT22;319;48.764;9.174;2023-09-18T00:20:31;22.00;99.90
674;DHT22;319;48.764;9.174;2023-09-18T00:22:57;22.00;99.90
674;DHT22;319;48.764;9.174;2023-09-18T00:25:24;22.00;99.80
674;DHT22;319;48.764;9.174;2023-09-18T00:27:52;22.00;99.90
674;DHT22;319;48.764;9.174;2023-09-18T00:30:19;22.00;99.90
674;DHT22;319;48.764;9.174;2023-09-18T00:32:45;22.00;99.90
674;DHT22;319;48.764;9.174;2023-09-18T00:35:15;22.00;99.90
674;DHT22;319;48.764;9.174;2023-09-18T00:37:42;22.00;99.90
674;DHT22;319;48.764;9.174;2023-09-18T00:40:09;22.00;99.90
674;DHT22;319;48.764;9.174;2023-09-18T00:42:37;22.00;99.90
674;DHT22;319;48.764;9.174;2023-09-18T00:45:06;22.00;99.90
674;DHT22;319;48.764;9.174;2023-09-18T00:47:33;21.90;99.90
674;DHT22;319;48.764;9.174;2023-09-18T00:50:01;22.00;99.90
674;DHT22;319;48.764;9.174;2023-09-18T00:52:29;22.00;99.90
674;DHT22;319;48.764;9.174;2023-09-18T00:54:56;22.00;99.90
674;DHT22;319;48.764;9.174;2023-09-18T00:57:23;22.10;99.90
674;DHT22;319;48.764;9.174;2023-09-18T00:59:50;22.10;99.80
674;DHT22;319;48.764;9.174;2023-09-18T01:02:19;22.20;99.80
674;DHT22;319;48.764;9.174;2023-09-18T01:04:47;22.20;99.70
674;DHT22;319;48.764;9.174;2023-09-18T01:07:14;22.30;99.70
674;DHT22;319;48.764;9.174;2023-09-18T01:09:41;22.30;99.70
674;DHT22;319;48.764;9.174;2023-09-18T01:12:16;22.30;99.50
674;DHT22;319;48.764;9.174;2023-09-18T01:14:50;22.30;99.60
674;DHT22;319;48.764;9.174;2023-09-18T01:17:19;22.40;99.40
674;DHT22;319;48.764;9.174;2023-09-18T01:19:47;22.40;99.30
674;DHT22;319;48.764;9.174;2023-09-18T01:22:17;22.50;98.50
674;DHT22;319;48.764;9.174;2023-09-18T01:24:46;22.60;98.20
674;DHT22;319;48.764;9.174;2023-09-18T01:27:15;22.80;97.90
674;DHT22;319;48.764;9.174;2023-09-18T01:29:43;22.90;97.30
674;DHT22;319;48.764;9.174;2023-09-18T01:32:10;23.00;97.00
674;DHT22;319;48.764;9.174;2023-09-18T01:34:39;23.20;96.80
674;DHT22;319;48.764;9.174;2023-09-18T01:37:09;23.30;96.80
674;DHT22;319;48.764;9.174;2023-09-18T01:39:36;23.40;96.30
674;DHT22;319;48.764;9.174;2023-09-18T01:42:06;23.50;96.00
674;DHT22;319;48.764;9.174;2023-09-18T01:44:35;23.60;95.80
674;DHT22;319;48.764;9.174;2023-09-18T01:47:04;23.70;95.60
674;DHT22;319;48.764;9.174;2023-09-18T01:49:33;23.80;95.40
674;DHT22;319;48.764;9.174;2023-09-18T01:52:00;23.80;95.40
674;DHT22;319;48.764;9.174;2023-09-18T01:54:28;23.80;95.30
674;DHT22;319;48.764;9.174;2023-09-18T01:56:54;23.90;95.30
674;DHT22;319;48.764;9.174;2023-09-18T01:59:23;23.90;94.80
674;DHT22;319;48.764;9.174;2023-09-18T02:01:51;23.90;94.80
674;DHT22;319;48.764;9.174;2023-09-18T02:04:19;23.90;94.60
674;DHT22;319;48.764;9.174;2023-09-18T02:06:47;23.90;94.60
674;DHT22;319;48.764;9.174;2023-09-18T02:09:14;23.80;95.50
674;DHT22;319;48.764;9.174;2023-09-18T02:11:43;23.60;96.70
674;DHT22;319;48.764;9.174;2023-09-18T02:14:10;23.30;96.30
674;DHT22;319;48.764;9.174;2023-09-18T02:16:39;23.30;97.70
674;DHT22;319;48.764;9.174;2023-09-18T02:19:07;23.00;99.40
674;DHT22;319;48.764;9.174;2023-09-18T02:21:35;22.70;99.90
674;DHT22;319;48.764;9.174;2023-09-18T02:24:02;22.50;99.90
674;DHT22;319;48.764;9.174;2023-09-18T02:26:29;22.20;99.90
674;DHT22;319;48.764;9.174;2023-09-18T02:28:58;22.10;99.90
674;DHT22;319;48.764;9.174;2023-09-18T02:31:25;22.00;99.90
674;DHT22;319;48.764;9.174;2023-09-18T02:33:54;21.90;99.90
674;DHT22;319;48.764;9.174;2023-09-18T02:36:24;21.80;99.90
674;DHT22;319;48.764;9.174;2023-09-18T02:39:01;21.70;99.90
674;DHT22;319;48.764;9.174;2023-09-18T02:41:32;21.60;99.90
674;DHT22;319;48.764;9.174;2023-09-18T02:44:03;21.50;99.90
674;DHT22;319;48.764;9.174;2023-09-18T02:46:33;21.40;99.90
674;DHT22;319;48.764;9.174;2023-09-18T02:52:02;21.30;99.90
674;DHT22;319;48.764;9.174;2023-09-18T02:54:33;21.40;99.90
674;DHT22;319;48.764;9.174;2023-09-18T02:57:09;21.60;99.90
674;DHT22;319;48.764;9.174;2023-09-18T02:59:43;21.70;99.90
674;DHT22;319;48.764;9.174;2023-09-18T03:02:14;21.80;99.90
674;DHT22;319;48.764;9.174;2023-09-18T03:04:47;21.90;99.90
674;DHT22;319;48.764;9.174;2023-09-18T03:07:24;21.90;99.90
674;DHT22;319;48.764;9.174;2023-09-18T03:10:00;21.90;99.90
674;DHT22;319;48.764;9.174;2023-09-18T03:12:32;22.00;99.90
674;DHT22;319;48.764;9.174;2023-09-18T03:15:03;22.10;99.90
674;DHT22;319;48.764;9.174;2023-09-18T03:17:37;22.10;99.70
674;DHT22;319;48.764;9.174;2023-09-18T03:20:14;22.20;99.60
674;DHT22;319;48.764;9.174;2023-09-18T03:22:58;22.20;99.30
674;DHT22;319;48.764;9.174;2023-09-18T03:25:33;22.30;99.60
674;DHT22;319;48.764;9.174;2023-09-18T03:28:09;22.20;99.90
674;DHT22;319;48.764;9.174;2023-09-18T03:30:42;22.20;99.90
674;DHT22;319;48.764;9.174;2023-09-18T03:33:19;22.20;99.90
674;DHT22;319;48.764;9.174;2023-09-18T03:35:51;22.10;99.90
674;DHT22;319;48.764;9.174;2023-09-18T03:38:23;22.20;99.90
674;DHT22;319;48.764;9.174;2023-09-18T03:40:50;22.20;99.90
674;DHT22;319;48.764;9.174;2023-09-18T03:43:17;22.20;99.90
674;DHT22;319;48.764;9.174;2023-09-18T03:45:44;22.20;99.90
674;DHT22;319;48.764;9.174;2023-09-18T03:48:11;22.20;99.90
674;DHT22;319;48.764;9.174;2023-09-18T03:50:38;22.30;99.90
674;DHT22;319;48.764;9.174;2023-09-18T03:53:06;22.30;99.90
674;DHT22;319;48.764;9.174;2023-09-18T03:55:33;22.30;99.90
674;DHT22;319;48.764;9.174;2023-09-18T03:58:00;22.30;99.90
674;DHT22;319;48.764;9.174;2023-09-18T04:00:27;22.30;99.90
674;DHT22;319;48.764;9.174;2023-09-18T04:02:54;22.30;99.90
674;DHT22;319;48.764;9.174;2023-09-18T04:05:21;22.40;99.90
674;DHT22;319;48.764;9.174;2023-09-18T04:07:48;22.40;99.10
674;DHT22;319;48.764;9.174;2023-09-18T04:10:17;22.50;99.10
674;DHT22;319;48.764;9.174;2023-09-18T04:12:48;22.60;99.90
674;DHT22;319;48.764;9.174;2023-09-18T04:15:16;22.60;99.90
674;DHT22;319;48.764;9.174;2023-09-18T04:17:44;22.60;99.80
674;DHT22;319;48.764;9.174;2023-09-18T04:20:11;22.60;99.30
674;DHT22;319;48.764;9.174;2023-09-18T04:22:43;22.60;99.10
674;DHT22;319;48.764;9.174;2023-09-18T04:25:11;22.60;98.70
674;DHT22;319;48.764;9.174;2023-09-18T04:27:39;22.70;99.20
674;DHT22;319;48.764;9.174;2023-09-18T04:30:07;22.60;99.70
674;DHT22;319;48.764;9.174;2023-09-18T04:32:35;22.60;99.60
674;DHT22;319;48.764;9.174;2023-09-18T04:35:02;22.60;99.90
674;DHT22;319;48.764;9.174;2023-09-18T04:37:30;22.70;99.80
674;DHT22;319;48.764;9.174;2023-09-18T04:39:57;22.60;99.60
674;DHT22;319;48.764;9.174;2023-09-18T04:42:24;22.60;99.40
674;DHT22;319;48.764;9.174;2023-09-18T04:44:53;22.60;99.40
674;DHT22;319;48.764;9.174;2023-09-18T04:47:19;22.60;99.30
674;DHT22;319;48.764;9.174;2023-09-18T04:49:46;22.60;99.10
674;DHT22;319;48.764;9.174;2023-09-18T04:52:14;22.60;99.10
674;DHT22;319;48.764;9.174;2023-09-18T04:54:41;22.60;99.20
674;DHT22;319;48.764;9.174;2023-09-18T04:57:08;22.60;99.30
674;DHT22;319;48.764;9.174;2023-09-18T04:59:35;22.50;99.70
674;DHT22;319;48.764;9.174;2023-09-18T05:02:03;22.50;99.60
674;DHT22;319;48.764;9.174;2023-09-18T05:04:30;22.50;99.80
674;DHT22;319;48.764;9.174;2023-09-18T05:06:57;22.50;99.80
674;DHT22;319;48.764;9.174;2023-09-18T05:09:27;22.60;99.90
674;DHT22;319;48.764;9.174;2023-09-18T05:11:53;22.60;99.90
674;DHT22;319;48.764;9.174;2023-09-18T05:14:20;22.60;99.60
674;DHT22;319;48.764;9.174;2023-09-18T05:16:47;22.70;99.90
674;DHT22;319;48.764;9.174;2023-09-18T05:19:15;22.60;99.90
674;DHT22;319;48.764;9.174;2023-09-18T05:21:42;22.60;99.50
674;DHT22;319;48.764;9.174;2023-09-18T05:24:09;22.50;99.40
674;DHT22;319;48.764;9.174;2023-09-18T05:26:35;22.50;99.50
674;DHT22;319;48.764;9.174;2023-09-18T05:29:02;22.40;99.70
674;DHT22;319;48.764;9.174;2023-09-18T05:31:29;22.30;99.70
674;DHT22;319;48.764;9.174;2023-09-18T05:33:56;22.20;99.90
674;DHT22;319;48.764;9.174;2023-09-18T05:36:24;22.20;99.90
674;DHT22;319;48.764;9.174;2023-09-18T05:38:51;22.10;99.90
674;DHT22;319;48.764;9.174;2023-09-18T05:41:18;22.10;99.90
674;DHT22;319;48.764;9.174;2023-09-18T05:43:44;22.00;99.90
674;DHT22;319;48.764;9.174;2023-09-18T05:46:12;21.90;99.90
674;DHT22;319;48.764;9.174;2023-09-18T05:48:39;21.90;99.90
674;DHT22;319;48.764;9.174;2023-09-18T05:51:06;21.80;99.90
674;DHT22;319;48.764;9.174;2023-09-18T05:53:34;21.90;99.90
674;DHT22;319;48.764;9.174;2023-09-18T05:56:00;21.90;99.90
674;DHT22;319;48.764;9.174;2023-09-18T05:58:29;21.90;99.90
674;DHT22;319;48.764;9.174;2023-09-18T06:00:57;21.90;99.90
674;DHT22;319;48.764;9.174;2023-09-18T06:03:25;21.90;99.90
674;DHT22;319;48.764;9.174;2023-09-18T06:05:52;22.00;99.90
674;DHT22;319;48.764;9.174;2023-09-18T06:08:19;21.90;99.90
674;DHT22;319;48.764;9.174;2023-09-18T06:10:47;21.80;99.90
674;DHT22;319;48.764;9.174;2023-09-18T06:13:14;21.80;99.90
674;DHT22;319;48.764;9.174;2023-09-18T06:15:40;21.70;99.90
674;DHT22;319;48.764;9.174;2023-09-18T06:18:07;21.60;99.90
674;DHT22;319;48.764;9.174;2023-09-18T06:20:34;21.60;99.90
674;DHT22;319;48.764;9.174;2023-09-18T06:23:00;21.60;99.90
674;DHT22;319;48.764;9.174;2023-09-18T06:25:29;21.70;99.90
674;DHT22;319;48.764;9.174;2023-09-18T06:27:58;21.70;99.90
674;DHT22;319;48.764;9.174;2023-09-18T06:30:26;21.80;99.90
674;DHT22;319;48.764;9.174;2023-09-18T06:32:53;21.90;99.90
674;DHT22;319;48.764;9.174;2023-09-18T06:35:20;21.90;99.90
674;DHT22;319;48.764;9.174;2023-09-18T06:37:46;21.90;99.90
674;DHT22;319;48.764;9.174;2023-09-18T06:40:13;21.90;99.90
674;DHT22;319;48.764;9.174;2023-09-18T06:42:40;21.80;99.90
674;DHT22;319;48.764;9.174;2023-09-18T06:45:09;21.70;99.90
674;DHT22;319;48.764;9.174;2023-09-18T06:47:35;21.70;99.90
674;DHT22;319;48.764;9.174;2023-09-18T06:50:03;21.50;99.90
674;DHT22;319;48.764;9.174;2023-09-18T06:52:31;21.40;99.90
674;DHT22;319;48.764;9.174;2023-09-18T06:54:57;21.40;99.90
674;DHT22;319;48.764;9.174;2023-09-18T06:57:25;21.40;99.90
674;DHT22;319;48.764;9.174;2023-09-18T06:59:53;21.40;99.90
674;DHT22;319;48.764;9.174;2023-09-18T07:02:21;21.40;99.90
674;DHT22;319;48.764;9.174;2023-09-18T07:04:48;21.40;99.90
674;DHT22;319;48.764;9.174;2023-09-18T07:07:15;21.40;99.90
674;DHT22;319;48.764;9.174;2023-09-18T07:09:42;21.40;99.90
674;DHT22;319;48.764;9.174;2023-09-18T07:12:09;21.50;99.90
674;DHT22;319;48.764;9.174;2023-09-18T07:14:36;21.60;99.90
674;DHT22;319;48.764;9.174;2023-09-18T07:17:03;21.60;99.90
674;DHT22;319;48.764;9.174;2023-09-18T07:19:31;21.70;99.90
674;DHT22;319;48.764;9.174;2023-09-18T07:21:59;21.80;99.90
674;DHT22;319;48.764;9.174;2023-09-18T07:24:25;22.00;99.90
674;DHT22;319;48.764;9.174;2023-09-18T07:26:52;22.20;99.90
674;DHT22;319;48.764;9.174;2023-09-18T07:29:20;22.30;99.90
674;DHT22;319;48.764;9.174;2023-09-18T07:31:47;22.40;99.90
674;DHT22;319;48.764;9.174;2023-09-18T07:34:14;22.50;99.90
674;DHT22;319;48.764;9.174;2023-09-18T07:36:44;22.60;99.90
674;DHT22;319;48.764;9.174;2023-09-18T07:39:10;22.60;99.90
674;DHT22;319;48.764;9.174;2023-09-18T07:41:38;22.60;99.80
674;DHT22;319;48.764;9.174;2023-09-18T07:44:05;22.70;99.60
674;DHT22;319;48.764;9.174;2023-09-18T07:46:32;22.70;99.50
674;DHT22;319;48.764;9.174;2023-09-18T07:48:58;22.70;99.60
674;DHT22;319;48.764;9.174;2023-09-18T07:51:25;22.80;99.50
674;DHT22;319;48.764;9.174;2023-09-18T07:53:53;22.80;99.10
674;DHT22;319;48.764;9.174;2023-09-18T07:56:20;22.80;98.90
674;DHT22;319;48.764;9.174;2023-09-18T07:58:47;22.90;98.80
674;DHT22;319;48.764;9.174;2023-09-18T08:01:14;22.90;98.80
674;DHT22;319;48.764;9.174;2023-09-18T08:03:42;23.00;98.80
674;DHT22;319;48.764;9.174;2023-09-18T08:06:08;23.10;98.40
674;DHT22;319;48.764;9.174;2023-09-18T08:08:37;23.20;98.40
674;DHT22;319;48.764;9.174;2023-09-18T08:11:08;23.10;98.10
674;DHT22;319;48.764;9.174;2023-09-18T08:13:35;23.10;98.10
674;DHT22;319;48.764;9.174;2023-09-18T08:16:02;23.00;98.10
674;DHT22;319;48.764;9.174;2023-09-18T08:18:29;23.00;98.10
674;DHT22;319;48.764;9.174;2023-09-18T08:20:57;22.90;98.10
674;DHT22;319;48.764;9.174;2023-09-18T08:23:24;22.90;98.20
674;DHT22;319;48.764;9.174;2023-09-18T08:25:50;22.90;98.30
674;DHT22;319;48.764;9.174;2023-09-18T08:28:22;22.80;98.40
674;DHT22;319;48.764;9.174;2023-09-18T08:30:49;22.80;98.50
674;DHT22;319;48.764;9.174;2023-09-18T08:33:16;22.80;98.40
674;DHT22;319;48.764;9.174;2023-09-18T08:35:42;22.70;98.50
674;DHT22;319;48.764;9.174;2023-09-18T08:38:09;22.80;98.90
674;DHT22;319;48.764;9.174;2023-09-18T08:40:36;22.60;99.30
674;DHT22;319;48.764;9.174;2023-09-18T08:43:03;22.50;99.70
674;DHT22;319;48.764;9.174;2023-09-18T08:45:35;22.40;99.90
674;DHT22;319;48.764;9.174;2023-09-18T08:48:04;22.20;99.90
674;DHT22;319;48.764;9.174;2023-09-18T08:50:33;22.20;99.90
674;DHT22;319;48.764;9.174;2023-09-18T08:53:01;22.20;99.90
674;DHT22;319;48.764;9.174;2023-09-18T08:55:28;22.00;99.90
674;DHT22;319;48.764;9.174;2023-09-18T08:57:56;21.90;99.90
674;DHT22;319;48.764;9.174;2023-09-18T09:00:24;21.60;99.90
674;DHT22;319;48.764;9.174;2023-09-18T09:02:52;21.50;99.90
674;DHT22;319;48.764;9.174;2023-09-18T09:05:20;21.40;99.90
674;DHT22;319;48.764;9.174;2023-09-18T09:07:48;21.20;99.90
674;DHT22;319;48.764;9.174;2023-09-18T09:10:14;21.20;99.90
674;DHT22;319;48.764;9.174;2023-09-18T09:12:55;21.10;99.90
674;DHT22;319;48.764;9.174;2023-09-18T09:15:24;21.00;99.90
674;DHT22;319;48.764;9.174;2023-09-18T09:18:02;21.00;99.90
674;DHT22;319;48.764;9.174;2023-09-18T09:20:29;20.90;99.90
674;DHT22;319;48.764;9.174;2023-09-18T09:23:00;20.90;99.90
674;DHT22;319;48.764;9.174;2023-09-18T09:25:28;20.90;99.90
674;DHT22;319;48.764;9.174;2023-09-18T09:27:58;20.90;99.90
674;DHT22;319;48.764;9.174;2023-09-18T09:30:29;20.90;99.90
674;DHT22;319;48.764;9.174;2023-09-18T09:32:58;20.70;99.90
674;DHT22;319;48.764;9.174;2023-09-18T09:35:29;20.70;99.90
674;DHT22;319;48.764;9.174;2023-09-18T09:38:06;20.70;99.90
674;DHT22;319;48.764;9.174;2023-09-18T09:40:34;20.80;99.90
674;DHT22;319;48.764;9.174;2023-09-18T09:43:02;20.80;99.90
674;DHT22;319;48.764;9.174;2023-09-18T09:45:31;20.90;99.90
674;DHT22;319;48.764;9.174;2023-09-18T09:48:03;20.90;99.90
674;DHT22;319;48.764;9.174;2023-09-18T09:50:33;20.90;99.90
674;DHT22;319;48.764;9.174;2023-09-18T09:53:00;21.00;99.90
674;DHT22;319;48.764;9.174;2023-09-18T09:55:29;21.10;99.90
674;DHT22;319;48.764;9.174;2023-09-18T09:57:57;21.30;99.90
674;DHT22;319;48.764;9.174;2023-09-18T10:00:31;21.40;99.90
674;DHT22;319;48.764;9.174;2023-09-18T10:03:04;21.60;99.90
674;DHT22;319;48.764;9.174;2023-09-18T10:05:32;21.70;99.90
674;DHT22;319;48.764;9.174;2023-09-18T10:08:03;21.90;99.90
674;DHT22;319;48.764;9.174;2023-09-18T10:10:33;22.00;99.90
674;DHT22;319;48.764;9.174;2023-09-18T10:13:07;22.20;99.90
674;DHT22;319;48.764;9.174;2023-09-18T10:15:35;22.30;99.90
674;DHT22;319;48.764;9.174;2023-09-18T10:18:07;22.40;99.90
674;DHT22;319;48.764;9.174;2023-09-18T10:20:39;22.40;99.90
674;DHT22;319;48.764;9.174;2023-09-18T10:23:14;22.40;99.90
674;DHT22;319;48.764;9.174;2023-09-18T10:25:47;22.50;99.90
674;DHT22;319;48.764;9.174;2023-09-18T10:28:17;22.50;99.90
674;DHT22;319;48.764;9.174;2023-09-18T10:30:44;22.60;99.90
674;DHT22;319;48.764;9.174;2023-09-18T10:33:12;22.50;99.90
674;DHT22;319;48.764;9.174;2023-09-18T10:35:41;22.50;99.90
674;DHT22;319;48.764;9.174;2023-09-18T10:38:09;22.40;99.90
674;DHT22;319;48.764;9.174;2023-09-18T10:40:37;22.10;99.90
674;DHT22;319;48.764;9.174;2023-09-18T10:43:07;21.90;99.90
674;DHT22;319;48.764;9.174;2023-09-18T10:45:35;21.60;99.90
674;DHT22;319;48.764;9.174;2023-09-18T10:48:05;21.40;99.90
674;DHT22;319;48.764;9.174;2023-09-18T10:50:37;21.30;99.90
674;DHT22;319;48.764;9.174;2023-09-18T10:53:05;21.20;99.90
674;DHT22;319;48.764;9.174;2023-09-18T10:55:32;21.10;99.90
674;DHT22;319;48.764;9.174;2023-09-18T10:58:00;21.10;99.90
674;DHT22;319;48.764;9.174;2023-09-18T11:00:29;21.10;99.90
674;DHT22;319;48.764;9.174;2023-09-18T11:03:10;21.20;99.90
674;DHT22;319;48.764;9.174;2023-09-18T11:05:39;21.30;99.90
674;DHT22;319;48.764;9.174;2023-09-18T11:08:25;21.40;99.90
674;DHT22;319;48.764;9.174;2023-09-18T11:10:57;21.40;99.90
674;DHT22;319;48.764;9.174;2023-09-18T11:13:30;21.40;99.90
674;DHT22;319;48.764;9.174;2023-09-18T11:16:01;21.40;99.90
674;DHT22;319;48.764;9.174;2023-09-18T11:18:32;21.50;99.90
674;DHT22;319;48.764;9.174;2023-09-18T11:21:11;21.50;99.90
674;DHT22;319;48.764;9.174;2023-09-18T11:23:39;21.50;99.90
674;DHT22;319;48.764;9.174;2023-09-18T11:26:09;21.50;99.90
674;DHT22;319;48.764;9.174;2023-09-18T11:28:37;21.50;99.90
674;DHT22;319;48.764;9.174;2023-09-18T11:31:05;21.60;99.90
674;DHT22;319;48.764;9.174;2023-09-18T11:33:33;21.70;99.90
674;DHT22;319;48.764;9.174;2023-09-18T11:36:04;21.70;99.90
674;DHT22;319;48.764;9.174;2023-09-18T11:38:34;21.70;99.90
674;DHT22;319;48.764;9.174;2023-09-18T11:43:43;21.60;99.90
674;DHT22;319;48.764;9.174;2023-09-18T11:46:10;21.80;99.90
674;DHT22;319;48.764;9.174;2023-09-18T11:48:41;21.90;99.90
674;DHT22;319;48.764;9.174;2023-09-18T11:51:08;22.00;99.90
674;DHT22;319;48.764;9.174;2023-09-18T11:53:39;22.00;99.90
674;DHT22;319;48.764;9.174;2023-09-18T11:56:10;22.10;99.90
674;DHT22;319;48.764;9.174;2023-09-18T11:58:46;22.00;99.90
674;DHT22;319;48.764;9.174;2023-09-18T12:01:13;22.00;99.90
674;DHT22;319;48.764;9.174;2023-09-18T12:03:41;22.20;99.90
674;DHT22;319;48.764;9.174;2023-09-18T12:06:08;22.30;99.90
674;DHT22;319;48.764;9.174;2023-09-18T12:08:40;22.40;99.90
674;DHT22;319;48.764;9.174;2023-09-18T12:11:07;22.50;99.90
674;DHT22;319;48.764;9.174;2023-09-18T12:13:34;22.60;99.90
674;DHT22;319;48.764;9.174;2023-09-18T12:16:02;22.60;99.90
674;DHT22;319;48.764;9.174;2023-09-18T12:18:31;22.70;99.90
674;DHT22;319;48.764;9.174;2023-09-18T12:21:00;22.70;99.90
674;DHT22;319;48.764;9.174;2023-09-18T12:23:36;22.60;99.90
674;DHT22;319;48.764;9.174;2023-09-18T12:26:04;22.60;99.90
674;DHT22;319;48.764;9.174;2023-09-18T12:28:33;22.50;99.90
674;DHT22;319;48.764;9.174;2023-09-18T12:31:01;22.40;99.90
674;DHT22;319;48.764;9.174;2023-09-18T12:33:34;22.40;99.90
674;DHT22;319;48.764;9.174;2023-09-18T12:36:02;22.40;99.90
674;DHT22;319;48.764;9.174;2023-09-18T12:38:30;22.40;99.90
674;DHT22;319;48.764;9.174;2023-09-18T12:40:58;22.20;99.90
674;DHT22;319;48.764;9.174;2023-09-18T12:43:34;22.30;99.90
674;DHT22;319;48.764;9.174;2023-09-18T12:46:02;22.50;99.90
674;DHT22;319;48.764;9.174;2023-09-18T12:48:30;22.70;99.90
674;DHT22;319;48.764;9.174;2023-09-18T12:51:02;23.00;99.90
674;DHT22;319;48.764;9.174;2023-09-18T12:53:30;23.30;99.90
674;DHT22;319;48.764;9.174;2023-09-18T12:56:07;23.40;99.90
674;DHT22;319;48.764;9.174;2023-09-18T12:58:39;23.60;99.90
674;DHT22;319;48.764;9.174;2023-09-18T13:01:10;23.70;99.90
674;DHT22;319;48.764;9.174;2023-09-18T13:03:42;23.70;99.90
674;DHT22;319;48.764;9.174;2023-09-18T13:06:10;24.00;99.90
674;DHT22;319;48.764;9.174;2023-09-18T13:08:38;24.10;99.40
674;DHT22;319;48.764;9.174;2023-09-18T13:11:05;24.10;99.20
674;DHT22;319;48.764;9.174;2023-09-18T13:13:33;24.30;99.30
674;DHT22;319;48.764;9.174;2023-09-18T13:16:05;24.50;98.40
674;DHT22;319;48.764;9.174;2023-09-18T13:18:32;24.50;97.80
674;DHT22;319;48.764;9.174;2023-09-18T13:20:59;24.40;97.70
674;DHT22;319;48.764;9.174;2023-09-18T13:23:29;24.50;97.60
674;DHT22;319;48.764;9.174;2023-09-18T13:26:00;24.60;97.40
674;DHT22;319;48.764;9.174;2023-09-18T13:28:28;24.50;96.90
674;DHT22;319;48.764;9.174;2023-09-18T13:30:57;24.40;96.80
674;DHT22;319;48.764;9.174;2023-09-18T13:33:26;24.40;96.60
674;DHT22;319;48.764;9.174;2023-09-18T13:35:53;24.40;96.70
674;DHT22;319;48.764;9.174;2023-09-18T13:38:21;24.60;96.50
674;DHT22;319;48.764;9.174;2023-09-18T13:40:48;24.50;95.90
674;DHT22;319;48.764;9.174;2023-09-18T13:43:15;24.60;96.10
674;DHT22;319;48.764;9.174;2023-09-18T13:45:44;24.60;95.80
674;DHT22;319;48.764;9.174;2023-09-18T13:48:10;24.50;95.50
674;DHT22;319;48.764;9.174;2023-09-18T13:50:38;24.30;96.00
674;DHT22;319;48.764;9.174;2023-09-18T13:53:05;24.20;95.80
674;DHT22;319;48.764;9.174;2023-09-18T13:55:32;24.00;95.90
674;DHT22;319;48.764;9.174;2023-09-18T13:57:59;24.00;96.00
674;DHT22;319;48.764;9.174;2023-09-18T14:00:28;24.00;96.10
674;DHT22;319;48.764;9.174;2023-09-18T14:02:55;24.10;96.30
674;DHT22;319;48.764;9.174;2023-09-18T14:05:22;24.10;96.10
674;DHT22;319;48.764;9.174;2023-09-18T14:07:50;24.10;96.10
674;DHT22;319;48.764;9.174;2023-09-18T14:10:17;24.20;96.10
674;DHT22;319;48.764;9.174;2023-09-18T14:12:46;24.40;96.00
674;DHT22;319;48.764;9.174;2023-09-18T14:15:13;24.40;95.50
674;DHT22;319;48.764;9.174;2023-09-18T14:17:40;24.30;95.60
674;DHT22;319;48.764;9.174;2023-09-18T14:20:07;24.40;95.50
674;DHT22;319;48.764;9.174;2023-09-18T14:22:35;24.40;95.40
674;DHT22;319;48.764;9.174;2023-09-18T14:25:04;24.50;95.40
674;DHT22;319;48.764;9.174;2023-09-18T14:27:31;24.60;95.00
674;DHT22;319;48.764;9.174;2023-09-18T14:29:58;24.50;94.90
674;DHT22;319;48.764;9.174;2023-09-18T14:32:25;24.40;95.00
674;DHT22;319;48.764;9.174;2023-09-18T14:34:51;24.30;95.20
674;DHT22;319;48.764;9.174;2023-09-18T14:37:18;24.30;95.20
674;DHT22;319;48.764;9.174;2023-09-18T14:39:45;24.40;95.50
674;DHT22;319;48.764;9.174;2023-09-18T14:42:13;24.50;95.40
674;DHT22;319;48.764;9.174;2023-09-18T14:44:40;24.30;95.10
674;DHT22;319;48.764;9.174;2023-09-18T14:47:10;24.40;94.90
674;DHT22;319;48.764;9.174;2023-09-18T14:49:37;24.50;94.80
674;DHT22;319;48.764;9.174;2023-09-18T14:52:04;24.70;94.60
674;DHT22;319;48.764;9.174;2023-09-18T14:54:31;24.70;94.10
674;DHT22;319;48.764;9.174;2023-09-18T14:56:57;24.70;94.00
674;DHT22;319;48.764;9.174;2023-09-18T14:59:26;24.60;94.10
674;DHT22;319;48.764;9.174;2023-09-18T15:01:52;24.70;94.20
674;DHT22;319;48.764;9.174;2023-09-18T15:04:19;24.80;93.80
674;DHT22;319;48.764;9.174;2023-09-18T15:06:47;24.80;93.70
674;DHT22;319;48.764;9.174;2023-09-18T15:09:15;24.80;93.60
674;DHT22;319;48.764;9.174;2023-09-18T15:11:43;24.70;93.80
674;DHT22;319;48.764;9.174;2023-09-18T15:14:09;24.40;93.70
674;DHT22;319;48.764;9.174;2023-09-18T15:16:38;24.30;94.10
674;DHT22;319;48.764;9.174;2023-09-18T15:19:05;24.10;94.30
674;DHT22;319;48.764;9.174;2023-09-18T15:21:34;24.10;94.50
674;DHT22;319;48.764;9.174;2023-09-18T15:24:02;24.00;94.50
674;DHT22;319;48.764;9.174;2023-09-18T15:26:29;24.00;94.70
674;DHT22;319;48.764;9.174;2023-09-18T15:28:56;24.00;94.60
674;DHT22;319;48.764;9.174;2023-09-18T15:31:22;24.00;94.40
674;DHT22;319;48.764;9.174;2023-09-18T15:33:51;23.90;94.30
674;DHT22;319;48.764;9.174;2023-09-18T15:36:20;23.90;94.60
674;DHT22;319;48.764;9.174;2023-09-18T15:38:48;23.80;94.40
674;DHT22;319;48.764;9.174;2023-09-18T15:41:15;23.80;94.60
674;DHT22;319;48.764;9.174;2023-09-18T15:43:42;23.80;94.70
674;DHT22;319;48.764;9.174;2023-09-18T15:46:10;23.80;94.70
674;DHT22;319;48.764;9.174;2023-09-18T15:48:38;23.80;94.80
674;DHT22;319;48.764;9.174;2023-09-18T15:51:06;23.80;94.80
674;DHT22;319;48.764;9.174;2023-09-18T15:53:33;23.70;94.70
674;DHT22;319;48.764;9.174;2023-09-18T15:56:00;23.80;94.70
674;DHT22;319;48.764;9.174;2023-09-18T15:58:27;23.80;94.70
674;DHT22;319;48.764;9.174;2023-09-18T16:00:54;23.70;94.60
674;DHT22;319;48.764;9.174;2023-09-18T16:03:23;23.60;94.70
674;DHT22;319;48.764;9.174;2023-09-18T16:05:50;23.60;94.80
674;DHT22;319;48.764;9.174;2023-09-18T16:08:22;23.50;95.00
674;DHT22;319;48.764;9.174;2023-09-18T16:10:49;23.50;95.10
674;DHT22;319;48.764;9.174;2023-09-18T16:13:17;23.40;95.10
674;DHT22;319;48.764;9.174;2023-09-18T16:15:44;23.50;95.20
674;DHT22;319;48.764;9.174;2023-09-18T16:18:11;23.60;95.20
674;DHT22;319;48.764;9.174;2023-09-18T16:20:38;23.60;94.90
674;DHT22;319;48.764;9.174;2023-09-18T16:23:05;23.60;94.80
674;DHT22;319;48.764;9.174;2023-09-18T16:25:33;23.50;94.90
674;DHT22;319;48.764;9.174;2023-09-18T16:28:00;23.40;95.00
674;DHT22;319;48.764;9.174;2023-09-18T16:30:30;23.30;95.00
674;DHT22;319;48.764;9.174;2023-09-18T16:32:56;23.30;95.20
674;DHT22;319;48.764;9.174;2023-09-18T16:35:23;23.30;95.50
674;DHT22;319;48.764;9.174;2023-09-18T16:37:50;23.30;95.30
674;DHT22;319;48.764;9.174;2023-09-18T16:40:17;23.20;95.50
674;DHT22;319;48.764;9.174;2023-09-18T16:42:45;23.20;95.50
674;DHT22;319;48.764;9.174;2023-09-18T16:45:12;23.20;95.50
674;DHT22;319;48.764;9.174;2023-09-18T16:47:39;23.10;95.60